createdAt,value
2022-09-28T00:01:22.713Z,5.85
2022-09-28T00:03:54.450Z,6.50
2022-09-28T00:06:24.825Z,7.13
2022-09-28T00:08:52.762Z,5.90
2022-09-28T00:11:23.525Z,9.02
2022-09-28T00:13:56.526Z,5.88
2022-09-28T00:16:32.889Z,7.60
2022-09-28T00:19:01.369Z,6.80
2022-09-28T00:21:34.220Z,7.82
2022-09-28T00:24:18.893Z,6.38
2022-09-28T00:27:00.639Z,6.60
2022-09-28T00:29:33.893Z,7.55
2022-09-28T00:32:24.503Z,5.65
2022-09-28T00:34:52.461Z,5.43
2022-09-28T00:37:20.558Z,5.05
2022-09-28T00:39:49.217Z,6.15
2022-09-28T00:42:26.496Z,6.20
2022-09-28T00:44:59.966Z,4.95
2022-09-28T00:47:52.885Z,4.82
2022-09-28T00:50:30.919Z,5.78
2022-09-28T00:53:16.058Z,7.30
2022-09-28T00:56:07.408Z,7.47
2022-09-28T00:58:44.454Z,5.00
2022-09-28T01:01:12.620Z,6.45
2022-09-28T01:03:49.623Z,7.57
2022-09-28T01:06:23.848Z,7.20
2022-09-28T01:08:55.012Z,10.40
2022-09-28T01:11:22.433Z,6.32
2022-09-28T01:13:53.413Z,5.57
2022-09-28T01:17:14.528Z,8.23
2022-09-28T01:20:21.994Z,5.20
2022-09-28T01:23:32.916Z,6.70
2022-09-28T01:26:27.984Z,7.18
2022-09-28T01:29:11.417Z,6.88
2022-09-28T01:31:44.788Z,8.20
2022-09-28T01:34:28.120Z,7.43
2022-09-28T01:36:58.176Z,8.30
2022-09-28T01:39:42.105Z,7.35
2022-09-28T01:42:20.997Z,7.43
2022-09-28T01:44:52.798Z,6.05
2022-09-28T01:47:24.117Z,8.18
2022-09-28T01:50:22.930Z,6.07
2022-09-28T01:53:23.280Z,5.50
2022-09-28T01:56:01.657Z,7.80
2022-09-28T01:58:42.935Z,6.15
2022-09-28T02:01:25.330Z,8.45
2022-09-28T02:04:59.382Z,7.85
2022-09-28T02:07:57.390Z,7.72
2022-09-28T02:10:35.937Z,6.93
2022-09-28T02:13:12.561Z,8.68
2022-09-28T02:16:10.128Z,10.32
2022-09-28T02:18:37.543Z,11.60
2022-09-28T02:21:34.254Z,9.40
2022-09-28T02:24:23.513Z,11.02
2022-09-28T02:26:55.301Z,8.60
2022-09-28T02:29:23.785Z,8.30
2022-09-28T02:31:52.174Z,7.75
2022-09-28T02:34:21.196Z,8.68
2022-09-28T02:36:48.525Z,10.30
2022-09-28T02:39:17.830Z,8.98
2022-09-28T02:42:26.604Z,7.40
2022-09-28T02:45:53.113Z,8.13
2022-09-28T02:49:10.409Z,10.93
2022-09-28T02:52:38.549Z,10.30
2022-09-28T02:55:24.147Z,9.02
2022-09-28T02:58:34.608Z,9.07
2022-09-28T03:01:28.596Z,9.32
2022-09-28T03:04:21.685Z,11.65
2022-09-28T03:06:56.803Z,13.52
2022-09-28T03:09:50.140Z,13.55
2022-09-28T03:12:20.441Z,13.48
2022-09-28T03:14:47.809Z,12.73
2022-09-28T03:17:15.080Z,11.23
2022-09-28T03:19:42.385Z,13.02
2022-09-28T03:22:10.738Z,12.35
2022-09-28T03:24:37.991Z,12.77
2022-09-28T03:27:05.152Z,13.10
2022-09-28T03:29:33.087Z,12.68
2022-09-28T03:32:04.289Z,10.73
2022-09-28T03:34:31.513Z,11.95
2022-09-28T03:36:58.857Z,14.52
2022-09-28T03:39:26.089Z,12.43
2022-09-28T03:41:53.394Z,13.38
2022-09-28T03:44:21.718Z,10.88
2022-09-28T03:46:49.290Z,12.30
2022-09-28T03:49:16.617Z,13.02
2022-09-28T03:51:43.956Z,12.00
2022-09-28T03:54:11.192Z,11.20
2022-09-28T03:56:38.472Z,13.25
2022-09-28T03:59:05.842Z,11.60
2022-09-28T04:01:33.233Z,12.10
2022-09-28T04:04:00.823Z,10.23
2022-09-28T04:06:28.289Z,14.30
2022-09-28T04:08:55.833Z,12.10
2022-09-28T04:11:24.113Z,9.90
2022-09-28T04:13:51.304Z,11.65
2022-09-28T04:16:19.348Z,13.07
2022-09-28T04:19:00.938Z,13.02
2022-09-28T04:21:34.033Z,12.13
2022-09-28T04:24:09.610Z,14.77
2022-09-28T04:26:37.242Z,12.20
2022-09-28T04:29:16.924Z,14.02
2022-09-28T04:31:55.235Z,11.18
2022-09-28T04:34:33.135Z,12.05
2022-09-28T04:37:02.733Z,11.93
2022-09-28T04:39:29.937Z,11.80
2022-09-28T04:41:57.458Z,19.00
2022-09-28T04:44:24.706Z,12.63
2022-09-28T04:46:59.725Z,15.50
2022-09-28T04:49:30.550Z,12.15
2022-09-28T04:52:09.415Z,12.35
2022-09-28T04:54:36.632Z,11.07
2022-09-28T04:57:05.926Z,12.23
2022-09-28T04:59:33.643Z,11.30
2022-09-28T05:02:01.154Z,13.80
2022-09-28T05:04:37.161Z,17.00
2022-09-28T05:07:10.030Z,14.43
2022-09-28T05:09:38.701Z,13.65
2022-09-28T05:12:06.280Z,15.10
2022-09-28T05:14:33.545Z,12.77
2022-09-28T05:17:00.882Z,14.73
2022-09-28T05:19:28.559Z,14.25
2022-09-28T05:22:07.169Z,13.32
2022-09-28T05:24:38.958Z,15.68
2022-09-28T05:27:06.426Z,14.95
2022-09-28T05:29:34.327Z,13.93
2022-09-28T05:32:20.044Z,15.23
2022-09-28T05:35:01.170Z,13.48
2022-09-28T05:37:38.780Z,14.02
2022-09-28T05:40:07.320Z,14.25
2022-09-28T05:42:34.537Z,13.40
2022-09-28T05:45:03.320Z,13.05
2022-09-28T05:47:30.602Z,17.15
2022-09-28T05:49:57.762Z,14.15
2022-09-28T05:52:24.949Z,13.48
2022-09-28T05:54:52.208Z,12.80
2022-09-28T05:57:19.491Z,15.63
2022-09-28T05:59:46.835Z,14.85
2022-09-28T06:02:14.097Z,14.05
2022-09-28T06:04:42.820Z,16.48
2022-09-28T06:07:10.417Z,14.75
2022-09-28T06:09:37.671Z,12.95
2022-09-28T06:12:16.433Z,14.23
2022-09-28T06:14:47.176Z,12.35
2022-09-28T06:17:14.446Z,19.42
2022-09-28T06:19:44.735Z,15.23
2022-09-28T06:22:35.481Z,13.48
2022-09-28T06:25:09.308Z,15.43
2022-09-28T06:27:37.090Z,13.60
2022-09-28T06:30:04.968Z,13.80
2022-09-28T06:32:32.233Z,13.82
2022-09-28T06:34:59.449Z,12.65
2022-09-28T06:37:28.825Z,12.13
2022-09-28T06:39:56.464Z,13.98
2022-09-28T06:42:24.293Z,11.93
2022-09-28T06:45:24.366Z,10.35
2022-09-28T06:48:11.283Z,14.15
2022-09-28T06:50:41.731Z,14.00
2022-09-28T06:53:29.418Z,11.13
2022-09-28T06:56:03.154Z,13.90
2022-09-28T06:58:31.433Z,13.45
2022-09-28T07:01:00.027Z,13.05
2022-09-28T07:03:29.624Z,14.45
2022-09-28T07:06:21.005Z,14.25
2022-09-28T07:09:30.293Z,17.10
2022-09-28T07:15:02.250Z,14.65
2022-09-28T07:17:29.588Z,17.55
2022-09-28T07:20:11.816Z,13.82
2022-09-28T07:22:44.359Z,13.88
2022-09-28T07:25:17.829Z,15.57
2022-09-28T07:28:09.579Z,14.77
2022-09-28T07:31:03.354Z,14.57
2022-09-28T07:33:53.785Z,15.18
2022-09-28T07:38:58.313Z,11.52
2022-09-28T07:41:36.158Z,15.55
2022-09-28T07:44:06.295Z,12.95
2022-09-28T07:46:35.757Z,12.93
2022-09-28T07:49:11.367Z,9.73
2022-09-28T07:51:58.275Z,11.00
2022-09-28T07:54:30.263Z,11.68
2022-09-28T07:57:16.281Z,10.40
2022-09-28T08:00:08.923Z,10.40
2022-09-28T08:02:44.124Z,10.13
2022-09-28T08:05:13.414Z,9.70
2022-09-28T08:07:40.791Z,9.57
2022-09-28T08:10:10.081Z,12.15
2022-09-28T08:12:40.592Z,13.00
2022-09-28T08:15:28.328Z,10.38
2022-09-28T08:21:00.522Z,12.27
2022-09-28T08:23:27.746Z,14.90
2022-09-28T08:25:55.863Z,15.07
2022-09-28T08:28:24.873Z,10.43
2022-09-28T08:30:59.310Z,13.52
2022-09-28T08:33:27.393Z,8.98
2022-09-28T08:36:33.826Z,9.95
2022-09-28T08:39:19.795Z,16.77
2022-09-28T08:42:40.709Z,9.13
2022-09-28T08:45:31.562Z,12.40
2022-09-28T08:48:51.721Z,10.02
2022-09-28T08:52:10.313Z,11.85
2022-09-28T08:55:37.258Z,12.27
2022-09-28T08:58:24.265Z,9.63
2022-09-28T09:00:54.217Z,6.95
2022-09-28T09:03:39.372Z,7.82
2022-09-28T09:07:39.354Z,7.05
2022-09-28T09:10:47.570Z,5.95
2022-09-28T09:13:34.026Z,8.82
2022-09-28T09:16:49.307Z,7.93
2022-09-28T09:20:11.565Z,6.63
2022-09-28T09:23:12.445Z,7.18
2022-09-28T09:26:39.490Z,5.35
2022-09-28T09:29:41.186Z,7.30
2022-09-28T09:33:08.495Z,8.10
2022-09-28T09:36:33.813Z,8.38
2022-09-28T09:39:59.132Z,10.50
2022-09-28T09:42:52.716Z,8.90
2022-09-28T09:46:29.646Z,7.30
2022-09-28T09:49:42.548Z,6.95
2022-09-28T09:52:31.003Z,6.90
2022-09-28T09:55:30.304Z,7.65
2022-09-28T09:58:26.645Z,8.52
2022-09-28T10:01:32.516Z,7.35
2022-09-28T10:04:41.206Z,8.35
2022-09-28T10:08:08.228Z,7.30
2022-09-28T10:10:55.344Z,5.55
2022-09-28T10:13:24.134Z,5.07
2022-09-28T10:15:55.439Z,5.93
2022-09-28T10:18:28.202Z,7.18
2022-09-28T10:21:21.864Z,7.53
2022-09-28T10:24:02.771Z,5.30
2022-09-28T10:26:39.400Z,8.40
2022-09-28T10:29:25.143Z,7.93
2022-09-28T10:31:54.519Z,8.05
2022-09-28T10:34:31.213Z,8.00
2022-09-28T10:37:14.032Z,11.45
2022-09-28T10:40:05.113Z,6.40
2022-09-28T10:42:36.202Z,7.43
2022-09-28T10:45:23.168Z,7.65
2022-09-28T10:47:51.064Z,6.22
2022-09-28T10:50:28.231Z,11.85
2022-09-28T10:53:20.605Z,8.25
2022-09-28T10:56:22.805Z,5.47
2022-09-28T11:01:41.865Z,8.00
2022-09-28T11:04:29.301Z,7.85
2022-09-28T11:09:32.951Z,6.63
2022-09-28T11:12:14.503Z,9.15
2022-09-28T11:14:46.614Z,9.18
2022-09-28T11:17:38.755Z,7.05
2022-09-28T11:20:27.820Z,12.40
2022-09-28T11:23:27.014Z,7.95
2022-09-28T11:26:08.826Z,7.25
2022-09-28T11:28:39.608Z,8.55
2022-09-28T11:31:13.024Z,8.55
2022-09-28T11:34:57.440Z,9.00
2022-09-28T11:37:47.875Z,8.63
2022-09-28T11:40:52.688Z,10.70
2022-09-28T11:44:02.953Z,7.22
2022-09-28T11:46:49.385Z,8.88
2022-09-28T11:50:02.039Z,8.85
2022-09-28T11:52:49.153Z,9.52
2022-09-28T11:55:21.852Z,11.50
2022-09-28T11:58:17.432Z,11.48
2022-09-28T12:01:01.996Z,7.85
2022-09-28T12:03:52.064Z,7.43
2022-09-28T12:06:31.504Z,11.43
2022-09-28T12:09:16.805Z,9.60
2022-09-28T12:12:01.622Z,9.48
2022-09-28T12:14:43.006Z,12.82
2022-09-28T12:17:43.121Z,8.95
2022-09-28T12:20:35.800Z,11.85
2022-09-28T12:23:28.512Z,9.80
2022-09-28T12:26:02.001Z,10.48
2022-09-28T12:28:48.937Z,9.73
2022-09-28T12:31:28.438Z,10.20
2022-09-28T12:33:55.730Z,8.68
2022-09-28T12:36:41.413Z,10.35
2022-09-28T12:39:53.458Z,9.57
2022-09-28T12:42:35.653Z,12.75
2022-09-28T12:46:09.966Z,11.00
2022-09-28T12:49:21.661Z,12.68
2022-09-28T12:51:59.952Z,12.77
2022-09-28T12:55:05.056Z,14.93
2022-09-28T12:58:16.333Z,15.68
2022-09-28T13:01:02.392Z,11.73
2022-09-28T13:04:27.325Z,15.15
2022-09-28T13:07:26.341Z,12.90
2022-09-28T13:10:40.693Z,13.77
2022-09-28T13:13:18.185Z,16.13
2022-09-28T13:15:54.177Z,13.05
2022-09-28T13:18:42.716Z,14.05
2022-09-28T13:21:40.932Z,15.45
2022-09-28T13:24:32.051Z,13.38
2022-09-28T13:27:19.322Z,19.95
2022-09-28T13:29:49.781Z,13.20
2022-09-28T13:32:18.435Z,14.00
2022-09-28T13:34:50.451Z,13.65
2022-09-28T13:37:24.713Z,13.45
2022-09-28T13:39:53.143Z,15.38
2022-09-28T13:42:44.884Z,16.63
2022-09-28T13:45:20.894Z,16.77
2022-09-28T13:48:00.200Z,13.05
2022-09-28T13:51:01.588Z,14.88
2022-09-28T13:53:46.251Z,14.88
2022-09-28T13:56:38.129Z,16.00
2022-09-28T13:59:29.743Z,18.90
2022-09-28T14:02:25.347Z,17.17
2022-09-28T14:05:05.649Z,18.35
2022-09-28T14:07:35.864Z,13.40
2022-09-28T14:10:51.760Z,16.40
2022-09-28T14:13:40.923Z,23.25
2022-09-28T14:16:31.022Z,20.73
2022-09-28T14:19:16.253Z,15.18
2022-09-28T14:22:28.944Z,18.50
2022-09-28T14:25:27.299Z,18.25
2022-09-28T14:28:34.447Z,14.40
2022-09-28T14:31:24.969Z,17.25
2022-09-28T14:34:02.580Z,19.25
2022-09-28T14:37:01.817Z,19.90
2022-09-28T14:39:53.892Z,16.73
2022-09-28T14:42:25.358Z,15.52
2022-09-28T14:45:12.782Z,16.67
2022-09-28T14:48:04.917Z,15.50
2022-09-28T14:50:32.227Z,18.10
2022-09-28T14:53:20.109Z,19.50
2022-09-28T14:55:58.395Z,15.77
2022-09-28T14:58:29.800Z,16.35
2022-09-28T15:01:07.075Z,18.45
2022-09-28T15:03:38.720Z,14.85
2022-09-28T15:06:06.387Z,18.88
2022-09-28T15:08:39.947Z,17.40
2022-09-28T15:11:25.464Z,15.43
2022-09-28T15:14:07.266Z,15.43
2022-09-28T15:16:34.602Z,17.80
2022-09-28T15:19:18.565Z,17.98
2022-09-28T15:21:47.715Z,18.40
2022-09-28T15:24:34.901Z,15.43
2022-09-28T15:27:14.792Z,16.30
2022-09-28T15:29:42.024Z,16.95
2022-09-28T15:32:29.525Z,20.98
2022-09-28T15:34:58.453Z,18.88
2022-09-28T15:37:39.613Z,17.20
2022-09-28T15:40:17.205Z,19.13
2022-09-28T15:42:47.389Z,19.13
2022-09-28T15:45:14.577Z,16.98
2022-09-28T15:47:43.566Z,18.73
2022-09-28T15:50:28.941Z,15.80
2022-09-28T15:53:17.634Z,18.70
2022-09-28T15:55:45.414Z,22.65
2022-09-28T15:58:20.975Z,19.88
2022-09-28T16:01:36.083Z,20.42
2022-09-28T16:04:37.422Z,18.02
2022-09-28T16:07:56.019Z,16.30
2022-09-28T16:10:34.250Z,22.92
2022-09-28T16:13:20.043Z,16.38
2022-09-28T16:15:58.072Z,18.55
2022-09-28T16:18:30.817Z,21.13
2022-09-28T16:21:44.117Z,20.90
2022-09-28T16:24:35.824Z,19.10
2022-09-28T16:27:40.177Z,20.17
2022-09-28T16:30:27.243Z,24.38
2022-09-28T16:33:05.592Z,19.13
2022-09-28T16:35:49.553Z,20.98
2022-09-28T16:38:19.372Z,17.05
2022-09-28T16:40:54.833Z,17.30
2022-09-28T16:43:27.684Z,16.38
2022-09-28T16:46:09.330Z,18.65
2022-09-28T16:48:49.818Z,17.83
2022-09-28T16:51:19.047Z,18.83
2022-09-28T16:54:05.430Z,18.25
2022-09-28T16:56:35.281Z,18.77
2022-09-28T16:59:03.496Z,20.55
2022-09-28T17:01:31.455Z,15.20
2022-09-28T17:03:58.966Z,15.93
2022-09-28T17:06:27.111Z,16.70
2022-09-28T17:08:58.675Z,19.83
2022-09-28T17:11:26.078Z,16.35
2022-09-28T17:13:58.935Z,18.77
2022-09-28T17:19:25.650Z,20.88
2022-09-28T17:21:53.475Z,17.67
2022-09-28T17:24:21.019Z,19.25
2022-09-28T17:26:51.960Z,17.42
2022-09-28T17:29:19.955Z,14.52
2022-09-28T17:31:47.972Z,19.50
2022-09-28T17:34:16.697Z,21.10
2022-09-28T17:36:44.965Z,16.98
2022-09-28T17:39:18.989Z,19.50
2022-09-28T17:41:46.343Z,17.98
2022-09-28T17:44:16.759Z,18.10
2022-09-28T17:46:48.505Z,18.67
2022-09-28T17:49:16.804Z,18.30
2022-09-28T17:51:44.338Z,16.25
2022-09-28T17:54:13.016Z,20.20
2022-09-28T17:56:40.590Z,21.33
2022-09-28T17:59:14.462Z,19.25
2022-09-28T18:01:41.979Z,24.20
2022-09-28T18:04:33.238Z,17.27
2022-09-28T18:07:00.798Z,16.15
2022-09-28T18:09:28.179Z,16.35
2022-09-28T18:12:05.379Z,16.98
2022-09-28T18:14:32.534Z,21.10
2022-09-28T18:16:59.750Z,15.82
2022-09-28T18:19:31.750Z,15.98
2022-09-28T18:21:59.644Z,15.45
2022-09-28T18:24:26.918Z,17.92
2022-09-28T18:26:54.105Z,16.05
2022-09-28T18:29:21.252Z,13.82
2022-09-28T18:31:48.801Z,22.35
2022-09-28T18:34:16.733Z,17.02
2022-09-28T18:36:44.093Z,14.18
2022-09-28T18:39:11.704Z,12.65
2022-09-28T18:41:39.049Z,14.50
2022-09-28T18:44:06.236Z,17.52
2022-09-28T18:46:36.346Z,14.55
2022-09-28T18:49:06.830Z,11.85
2022-09-28T18:51:34.126Z,13.85
2022-09-28T18:54:06.982Z,15.93
2022-09-28T18:56:38.761Z,9.18
2022-09-28T18:59:12.184Z,9.75
2022-09-28T19:01:41.782Z,12.27
2022-09-28T19:04:11.760Z,11.98
2022-09-28T19:06:42.425Z,11.70
2022-09-28T19:09:10.111Z,12.75
2022-09-28T19:11:37.642Z,14.85
2022-09-28T19:14:05.335Z,16.00
2022-09-28T19:16:34.057Z,15.98
2022-09-28T19:19:03.063Z,12.85
2022-09-28T19:21:31.047Z,11.13
2022-09-28T19:24:02.258Z,13.05
2022-09-28T19:26:31.285Z,13.30
2022-09-28T19:28:59.565Z,12.75
2022-09-28T19:31:28.589Z,10.18
2022-09-28T19:33:55.890Z,9.85
2022-09-28T19:36:28.238Z,11.98
2022-09-28T19:38:59.124Z,9.88
2022-09-28T19:41:46.496Z,15.90
2022-09-28T19:44:25.696Z,18.27
2022-09-28T19:46:58.222Z,76.03
2022-09-28T19:49:27.890Z,78.95
2022-09-28T19:52:11.934Z,99.70
2022-09-28T19:54:41.133Z,74.95
2022-09-28T19:57:08.959Z,49.50
2022-09-28T19:59:37.775Z,38.80
2022-09-28T20:02:11.045Z,27.73
2022-09-28T20:04:38.444Z,22.35
2022-09-28T20:07:05.957Z,28.10
2022-09-28T20:09:33.579Z,23.92
2022-09-28T20:12:01.089Z,24.15
2022-09-28T20:14:32.851Z,27.63
2022-09-28T20:17:01.709Z,21.35
2022-09-28T20:19:28.996Z,30.25
2022-09-28T20:21:59.282Z,19.70
2022-09-28T20:24:28.672Z,17.02
2022-09-28T20:26:56.183Z,17.55
2022-09-28T20:29:25.178Z,23.23
2022-09-28T20:31:52.482Z,19.42
2022-09-28T20:34:19.730Z,19.40
2022-09-28T20:36:46.937Z,17.75
2022-09-28T20:39:14.435Z,19.08
2022-09-28T20:41:43.371Z,23.33
2022-09-28T20:44:10.613Z,22.73
2022-09-28T20:46:38.234Z,20.05
2022-09-28T20:49:07.019Z,23.13
2022-09-28T20:51:34.392Z,17.63
2022-09-28T20:54:01.963Z,19.88
2022-09-28T20:56:40.312Z,17.98
2022-09-28T20:59:10.731Z,20.13
2022-09-28T21:01:38.470Z,19.33
2022-09-28T21:04:09.231Z,19.33
2022-09-28T21:06:40.414Z,16.23
2022-09-28T21:09:10.363Z,15.85
2022-09-28T21:11:40.103Z,16.38
2022-09-28T21:14:09.510Z,18.42
2022-09-28T21:16:37.026Z,21.05
2022-09-28T21:19:04.790Z,15.68
2022-09-28T21:21:32.107Z,15.18
2022-09-28T21:23:59.697Z,18.77
2022-09-28T21:26:29.794Z,20.25
2022-09-28T21:29:20.320Z,18.83
2022-09-28T21:31:47.658Z,16.30
2022-09-28T21:34:19.701Z,12.88
2022-09-28T21:36:51.263Z,16.27
2022-09-28T21:39:19.394Z,16.23
2022-09-28T21:41:46.786Z,19.55
2022-09-28T21:44:14.095Z,15.85
2022-09-28T21:46:41.981Z,14.40
2022-09-28T21:49:12.277Z,15.02
2022-09-28T21:51:39.517Z,16.58
2022-09-28T21:54:07.064Z,23.02
2022-09-28T21:56:34.308Z,18.15
2022-09-28T21:59:01.622Z,14.18
2022-09-28T22:01:29.288Z,20.30
2022-09-28T22:03:57.647Z,13.48
2022-09-28T22:06:30.453Z,15.18
2022-09-28T22:08:58.209Z,16.02
2022-09-28T22:11:28.770Z,16.52
2022-09-28T22:13:59.625Z,17.42
2022-09-28T22:16:30.579Z,12.13
2022-09-28T22:18:59.169Z,17.73
2022-09-28T22:21:31.941Z,14.38
2022-09-28T22:24:03.000Z,17.65
2022-09-28T22:26:33.535Z,15.73
2022-09-28T22:29:08.347Z,15.02
2022-09-28T22:31:40.881Z,13.43
2022-09-28T22:34:09.927Z,13.27
2022-09-28T22:36:37.132Z,14.57
2022-09-28T22:39:04.893Z,18.63
2022-09-28T22:41:32.469Z,14.65
2022-09-28T22:44:00.476Z,13.90
2022-09-28T22:46:31.812Z,14.75
2022-09-28T22:49:00.630Z,15.25
2022-09-28T22:51:30.827Z,13.15
2022-09-28T22:53:58.701Z,13.95
2022-09-28T22:56:26.229Z,16.17
2022-09-28T22:58:53.457Z,21.33
2022-09-28T23:01:30.879Z,16.88
2022-09-28T23:03:59.279Z,16.40
2022-09-28T23:06:30.677Z,15.02
2022-09-28T23:08:58.157Z,14.73
2022-09-28T23:11:25.390Z,16.60
2022-09-28T23:13:56.058Z,17.23
2022-09-28T23:16:25.614Z,19.95
2022-09-28T23:18:55.555Z,12.95
2022-09-28T23:21:26.123Z,16.85
2022-09-28T23:24:03.327Z,14.90
2022-09-28T23:26:34.117Z,15.35
2022-09-28T23:29:01.514Z,21.58
2022-09-28T23:31:32.134Z,17.48
2022-09-28T23:34:06.392Z,15.02
2022-09-28T23:36:34.503Z,16.20
2022-09-28T23:39:02.558Z,16.77
2022-09-28T23:41:30.194Z,17.17
2022-09-28T23:43:57.402Z,16.23
2022-09-28T23:46:24.777Z,14.20
2022-09-28T23:48:52.161Z,17.40
2022-09-28T23:51:19.360Z,14.75
2022-09-28T23:53:46.881Z,14.45
2022-09-28T23:56:14.607Z,17.08
2022-09-28T23:58:42.014Z,14.55
